sensor_id;sensor_type;location;lat;lon;timestamp;P1;durP1;ratioP1;P2;durP2;ratioP2
25731;SDS011;13585;50.864;4.406;2023-10-19T00:01:15;5.47;;;4.22;;
25731;SDS011;13585;50.864;4.406;2023-10-19T00:03:42;5.38;;;3.83;;
25731;SDS011;13585;50.864;4.406;2023-10-19T00:06:11;5.10;;;3.80;;
25731;SDS011;13585;50.864;4.406;2023-10-19T00:08:38;6.28;;;3.58;;
25731;SDS011;13585;50.864;4.406;2023-10-19T00:11:06;5.00;;;4.00;;
25731;SDS011;13585;50.864;4.406;2023-10-19T00:13:46;5.78;;;3.83;;
25731;SDS011;13585;50.864;4.406;2023-10-19T00:16:15;5.65;;;3.72;;
25731;SDS011;13585;50.864;4.406;2023-10-19T00:18:47;5.38;;;3.83;;
25731;SDS011;13585;50.864;4.406;2023-10-19T00:21:14;5.63;;;3.83;;
25731;SDS011;13585;50.864;4.406;2023-10-19T00:23:55;6.75;;;4.00;;
25731;SDS011;13585;50.864;4.406;2023-10-19T00:26:25;5.43;;;3.65;;
25731;SDS011;13585;50.864;4.406;2023-10-19T00:28:52;6.07;;;4.22;;
25731;SDS011;13585;50.864;4.406;2023-10-19T00:31:20;4.85;;;3.65;;
25731;SDS011;13585;50.864;4.406;2023-10-19T00:33:47;4.65;;;3.75;;
25731;SDS011;13585;50.864;4.406;2023-10-19T00:36:16;5.18;;;3.60;;
25731;SDS011;13585;50.864;4.406;2023-10-19T00:38:45;5.05;;;3.80;;
25731;SDS011;13585;50.864;4.406;2023-10-19T00:41:14;3.75;;;3.35;;
25731;SDS011;13585;50.864;4.406;2023-10-19T00:43:59;5.47;;;3.70;;
25731;SDS011;13585;50.864;4.406;2023-10-19T00:46:29;4.95;;;3.63;;
25731;SDS011;13585;50.864;4.406;2023-10-19T00:49:03;4.05;;;3.30;;
25731;SDS011;13585;50.864;4.406;2023-10-19T00:56:40;5.22;;;3.60;;
25731;SDS011;13585;50.864;4.406;2023-10-19T00:59:12;6.00;;;3.50;;
25731;SDS011;13585;50.864;4.406;2023-10-19T01:01:40;5.70;;;3.58;;
25731;SDS011;13585;50.864;4.406;2023-10-19T01:04:10;4.40;;;3.20;;
25731;SDS011;13585;50.864;4.406;2023-10-19T01:06:40;5.60;;;3.40;;
25731;SDS011;13585;50.864;4.406;2023-10-19T01:09:11;5.10;;;3.23;;
25731;SDS011;13585;50.864;4.406;2023-10-19T01:11:43;5.00;;;3.38;;
25731;SDS011;13585;50.864;4.406;2023-10-19T01:14:18;4.30;;;2.90;;
25731;SDS011;13585;50.864;4.406;2023-10-19T01:16:48;4.47;;;3.20;;
25731;SDS011;13585;50.864;4.406;2023-10-19T01:19:15;6.30;;;3.30;;
25731;SDS011;13585;50.864;4.406;2023-10-19T01:21:43;4.82;;;3.50;;
25731;SDS011;13585;50.864;4.406;2023-10-19T01:24:17;4.30;;;3.10;;
25731;SDS011;13585;50.864;4.406;2023-10-19T01:27:00;4.03;;;3.33;;
25731;SDS011;13585;50.864;4.406;2023-10-19T01:29:28;4.53;;;3.08;;
25731;SDS011;13585;50.864;4.406;2023-10-19T01:31:54;4.68;;;2.85;;
25731;SDS011;13585;50.864;4.406;2023-10-19T01:34:31;4.43;;;3.42;;
25731;SDS011;13585;50.864;4.406;2023-10-19T01:36:58;4.55;;;3.10;;
25731;SDS011;13585;50.864;4.406;2023-10-19T01:39:28;4.78;;;3.33;;
25731;SDS011;13585;50.864;4.406;2023-10-19T01:41:54;4.90;;;3.10;;
25731;SDS011;13585;50.864;4.406;2023-10-19T01:44:22;4.15;;;2.85;;
25731;SDS011;13585;50.864;4.406;2023-10-19T01:46:49;5.40;;;3.38;;
25731;SDS011;13585;50.864;4.406;2023-10-19T01:49:15;4.18;;;2.78;;
25731;SDS011;13585;50.864;4.406;2023-10-19T01:51:51;3.92;;;3.30;;
25731;SDS011;13585;50.864;4.406;2023-10-19T01:54:18;4.90;;;2.88;;
25731;SDS011;13585;50.864;4.406;2023-10-19T01:56:48;4.43;;;3.15;;
25731;SDS011;13585;50.864;4.406;2023-10-19T02:01:46;4.05;;;3.20;;
25731;SDS011;13585;50.864;4.406;2023-10-19T02:04:13;4.57;;;3.40;;
25731;SDS011;13585;50.864;4.406;2023-10-19T02:06:38;3.83;;;2.90;;
25731;SDS011;13585;50.864;4.406;2023-10-19T02:09:09;3.92;;;3.08;;
25731;SDS011;13585;50.864;4.406;2023-10-19T02:11:43;4.18;;;2.80;;
25731;SDS011;13585;50.864;4.406;2023-10-19T02:14:12;3.90;;;2.92;;
25731;SDS011;13585;50.864;4.406;2023-10-19T02:16:42;3.80;;;3.20;;
25731;SDS011;13585;50.864;4.406;2023-10-19T02:19:09;4.68;;;2.90;;
25731;SDS011;13585;50.864;4.406;2023-10-19T02:21:35;3.55;;;3.08;;
25731;SDS011;13585;50.864;4.406;2023-10-19T02:24:07;3.67;;;2.83;;
25731;SDS011;13585;50.864;4.406;2023-10-19T02:26:34;3.85;;;2.90;;
25731;SDS011;13585;50.864;4.406;2023-10-19T02:29:02;4.90;;;3.20;;
25731;SDS011;13585;50.864;4.406;2023-10-19T02:31:33;3.85;;;2.75;;
25731;SDS011;13585;50.864;4.406;2023-10-19T02:33:59;4.00;;;2.72;;
25731;SDS011;13585;50.864;4.406;2023-10-19T02:36:28;3.70;;;2.65;;
25731;SDS011;13585;50.864;4.406;2023-10-19T02:38:58;3.97;;;2.90;;
25731;SDS011;13585;50.864;4.406;2023-10-19T02:41:26;4.38;;;2.85;;
25731;SDS011;13585;50.864;4.406;2023-10-19T02:43:55;4.10;;;2.70;;
25731;SDS011;13585;50.864;4.406;2023-10-19T02:46:28;6.65;;;2.88;;
25731;SDS011;13585;50.864;4.406;2023-10-19T02:48:54;4.63;;;2.85;;
25731;SDS011;13585;50.864;4.406;2023-10-19T02:51:20;3.53;;;2.53;;
25731;SDS011;13585;50.864;4.406;2023-10-19T02:53:45;6.10;;;2.90;;
25731;SDS011;13585;50.864;4.406;2023-10-19T02:56:12;4.90;;;2.67;;
25731;SDS011;13585;50.864;4.406;2023-10-19T02:58:41;3.92;;;3.03;;
25731;SDS011;13585;50.864;4.406;2023-10-19T03:01:30;6.13;;;3.05;;
25731;SDS011;13585;50.864;4.406;2023-10-19T03:03:59;4.20;;;3.10;;
25731;SDS011;13585;50.864;4.406;2023-10-19T03:06:29;3.88;;;2.65;;
25731;SDS011;13585;50.864;4.406;2023-10-19T03:08:59;3.58;;;2.70;;
25731;SDS011;13585;50.864;4.406;2023-10-19T03:11:47;4.22;;;2.30;;
25731;SDS011;13585;50.864;4.406;2023-10-19T03:14:17;3.75;;;2.67;;
25731;SDS011;13585;50.864;4.406;2023-10-19T03:16:43;3.08;;;2.40;;
25731;SDS011;13585;50.864;4.406;2023-10-19T03:19:10;4.90;;;2.42;;
25731;SDS011;13585;50.864;4.406;2023-10-19T03:21:38;4.30;;;2.75;;
25731;SDS011;13585;50.864;4.406;2023-10-19T03:24:17;2.83;;;2.38;;
25731;SDS011;13585;50.864;4.406;2023-10-19T03:27:02;3.15;;;2.22;;
25731;SDS011;13585;50.864;4.406;2023-10-19T03:29:37;3.15;;;2.22;;
25731;SDS011;13585;50.864;4.406;2023-10-19T03:32:04;3.22;;;2.30;;
25731;SDS011;13585;50.864;4.406;2023-10-19T03:34:34;3.47;;;2.50;;
25731;SDS011;13585;50.864;4.406;2023-10-19T03:37:00;3.08;;;2.28;;
25731;SDS011;13585;50.864;4.406;2023-10-19T03:39:31;4.10;;;2.30;;
25731;SDS011;13585;50.864;4.406;2023-10-19T03:41:58;4.22;;;2.28;;
25731;SDS011;13585;50.864;4.406;2023-10-19T03:44:24;3.75;;;2.50;;
25731;SDS011;13585;50.864;4.406;2023-10-19T03:46:53;2.90;;;2.22;;
25731;SDS011;13585;50.864;4.406;2023-10-19T03:49:21;2.88;;;2.22;;
25731;SDS011;13585;50.864;4.406;2023-10-19T03:51:47;3.95;;;2.45;;
25731;SDS011;13585;50.864;4.406;2023-10-19T03:54:44;3.00;;;2.13;;
25731;SDS011;13585;50.864;4.406;2023-10-19T03:57:12;3.95;;;2.50;;
25731;SDS011;13585;50.864;4.406;2023-10-19T03:59:50;3.50;;;2.20;;
25731;SDS011;13585;50.864;4.406;2023-10-19T04:02:22;3.75;;;2.50;;
25731;SDS011;13585;50.864;4.406;2023-10-19T04:04:53;3.05;;;2.33;;
25731;SDS011;13585;50.864;4.406;2023-10-19T04:07:20;3.45;;;2.28;;
25731;SDS011;13585;50.864;4.406;2023-10-19T04:09:49;3.53;;;2.13;;
25731;SDS011;13585;50.864;4.406;2023-10-19T04:12:32;3.20;;;2.08;;
25731;SDS011;13585;50.864;4.406;2023-10-19T04:15:00;3.90;;;2.40;;
25731;SDS011;13585;50.864;4.406;2023-10-19T04:17:45;2.97;;;2.35;;
25731;SDS011;13585;50.864;4.406;2023-10-19T04:20:12;2.95;;;2.00;;
25731;SDS011;13585;50.864;4.406;2023-10-19T04:22:43;3.15;;;2.38;;
25731;SDS011;13585;50.864;4.406;2023-10-19T04:25:13;3.47;;;2.17;;
25731;SDS011;13585;50.864;4.406;2023-10-19T04:27:42;4.05;;;2.00;;
25731;SDS011;13585;50.864;4.406;2023-10-19T04:30:08;3.35;;;2.10;;
25731;SDS011;13585;50.864;4.406;2023-10-19T04:32:44;3.45;;;2.20;;
25731;SDS011;13585;50.864;4.406;2023-10-19T04:35:13;2.65;;;1.90;;
25731;SDS011;13585;50.864;4.406;2023-10-19T04:37:46;3.63;;;2.17;;
25731;SDS011;13585;50.864;4.406;2023-10-19T04:40:18;3.65;;;2.10;;
25731;SDS011;13585;50.864;4.406;2023-10-19T04:42:45;2.53;;;1.92;;
25731;SDS011;13585;50.864;4.406;2023-10-19T04:45:11;3.25;;;2.13;;
25731;SDS011;13585;50.864;4.406;2023-10-19T04:47:38;3.17;;;2.17;;
25731;SDS011;13585;50.864;4.406;2023-10-19T04:50:04;2.95;;;2.03;;
25731;SDS011;13585;50.864;4.406;2023-10-19T04:52:30;3.97;;;2.35;;
25731;SDS011;13585;50.864;4.406;2023-10-19T04:54:57;2.97;;;1.77;;
25731;SDS011;13585;50.864;4.406;2023-10-19T04:57:23;2.70;;;2.03;;
25731;SDS011;13585;50.864;4.406;2023-10-19T04:59:49;2.97;;;2.03;;
25731;SDS011;13585;50.864;4.406;2023-10-19T05:02:15;3.15;;;2.20;;
25731;SDS011;13585;50.864;4.406;2023-10-19T05:04:41;2.33;;;1.75;;
25731;SDS011;13585;50.864;4.406;2023-10-19T05:07:08;2.60;;;1.95;;
25731;SDS011;13585;50.864;4.406;2023-10-19T05:09:37;4.63;;;2.00;;
25731;SDS011;13585;50.864;4.406;2023-10-19T05:12:06;4.22;;;2.22;;
25731;SDS011;13585;50.864;4.406;2023-10-19T05:14:34;2.50;;;1.83;;
25731;SDS011;13585;50.864;4.406;2023-10-19T05:17:03;3.38;;;2.47;;
25731;SDS011;13585;50.864;4.406;2023-10-19T05:19:30;2.20;;;1.70;;
25731;SDS011;13585;50.864;4.406;2023-10-19T05:22:00;3.20;;;2.30;;
25731;SDS011;13585;50.864;4.406;2023-10-19T05:24:27;2.80;;;2.17;;
25731;SDS011;13585;50.864;4.406;2023-10-19T05:26:53;3.28;;;1.90;;
25731;SDS011;13585;50.864;4.406;2023-10-19T05:29:20;3.05;;;1.90;;
25731;SDS011;13585;50.864;4.406;2023-10-19T05:31:45;2.92;;;1.90;;
25731;SDS011;13585;50.864;4.406;2023-10-19T05:34:12;3.92;;;1.83;;
25731;SDS011;13585;50.864;4.406;2023-10-19T05:36:41;2.65;;;1.85;;
25731;SDS011;13585;50.864;4.406;2023-10-19T05:39:10;2.65;;;1.80;;
25731;SDS011;13585;50.864;4.406;2023-10-19T05:41:35;3.47;;;2.22;;
25731;SDS011;13585;50.864;4.406;2023-10-19T05:44:02;4.18;;;2.20;;
25731;SDS011;13585;50.864;4.406;2023-10-19T05:46:28;2.80;;;1.98;;
25731;SDS011;13585;50.864;4.406;2023-10-19T05:48:54;4.40;;;2.10;;
25731;SDS011;13585;50.864;4.406;2023-10-19T05:51:21;5.03;;;2.30;;
25731;SDS011;13585;50.864;4.406;2023-10-19T05:53:47;4.07;;;2.42;;
25731;SDS011;13585;50.864;4.406;2023-10-19T05:56:13;2.63;;;1.85;;
25731;SDS011;13585;50.864;4.406;2023-10-19T05:58:42;3.53;;;1.92;;
25731;SDS011;13585;50.864;4.406;2023-10-19T06:01:12;3.58;;;2.35;;
25731;SDS011;13585;50.864;4.406;2023-10-19T06:03:37;4.55;;;2.20;;
25731;SDS011;13585;50.864;4.406;2023-10-19T06:06:03;4.45;;;2.17;;
25731;SDS011;13585;50.864;4.406;2023-10-19T06:08:29;3.58;;;1.98;;
25731;SDS011;13585;50.864;4.406;2023-10-19T06:10:56;4.20;;;1.92;;
25731;SDS011;13585;50.864;4.406;2023-10-19T06:13:21;3.22;;;1.80;;
25731;SDS011;13585;50.864;4.406;2023-10-19T06:15:50;2.60;;;1.85;;
25731;SDS011;13585;50.864;4.406;2023-10-19T06:18:16;3.13;;;2.10;;
25731;SDS011;13585;50.864;4.406;2023-10-19T06:20:44;4.97;;;2.13;;
25731;SDS011;13585;50.864;4.406;2023-10-19T06:23:10;3.10;;;1.70;;
25731;SDS011;13585;50.864;4.406;2023-10-19T06:25:37;3.40;;;1.75;;
25731;SDS011;13585;50.864;4.406;2023-10-19T06:28:03;4.50;;;2.10;;
25731;SDS011;13585;50.864;4.406;2023-10-19T06:30:30;3.20;;;1.98;;
25731;SDS011;13585;50.864;4.406;2023-10-19T06:32:57;2.30;;;1.80;;
25731;SDS011;13585;50.864;4.406;2023-10-19T06:35:26;2.97;;;1.67;;
25731;SDS011;13585;50.864;4.406;2023-10-19T06:37:53;3.13;;;1.90;;
25731;SDS011;13585;50.864;4.406;2023-10-19T06:40:22;4.10;;;1.95;;
25731;SDS011;13585;50.864;4.406;2023-10-19T06:42:49;9.20;;;2.30;;
25731;SDS011;13585;50.864;4.406;2023-10-19T06:45:16;3.47;;;1.75;;
25731;SDS011;13585;50.864;4.406;2023-10-19T06:47:44;4.72;;;1.92;;
25731;SDS011;13585;50.864;4.406;2023-10-19T06:50:12;4.97;;;2.35;;
25731;SDS011;13585;50.864;4.406;2023-10-19T06:52:40;4.18;;;2.15;;
25731;SDS011;13585;50.864;4.406;2023-10-19T06:55:08;5.65;;;3.08;;
25731;SDS011;13585;50.864;4.406;2023-10-19T06:57:39;7.90;;;3.45;;
25731;SDS011;13585;50.864;4.406;2023-10-19T07:00:11;4.68;;;2.63;;
25731;SDS011;13585;50.864;4.406;2023-10-19T07:02:43;5.00;;;2.47;;
25731;SDS011;13585;50.864;4.406;2023-10-19T07:05:11;4.63;;;2.47;;
25731;SDS011;13585;50.864;4.406;2023-10-19T07:07:39;5.25;;;2.58;;
25731;SDS011;13585;50.864;4.406;2023-10-19T07:10:06;4.90;;;2.65;;
25731;SDS011;13585;50.864;4.406;2023-10-19T07:12:33;3.47;;;2.20;;
25731;SDS011;13585;50.864;4.406;2023-10-19T07:15:00;4.10;;;2.20;;
25731;SDS011;13585;50.864;4.406;2023-10-19T07:17:28;3.13;;;2.08;;
25731;SDS011;13585;50.864;4.406;2023-10-19T07:19:54;4.13;;;2.33;;
25731;SDS011;13585;50.864;4.406;2023-10-19T07:22:19;4.07;;;2.00;;
25731;SDS011;13585;50.864;4.406;2023-10-19T07:24:48;3.80;;;2.20;;
25731;SDS011;13585;50.864;4.406;2023-10-19T07:27:14;5.20;;;2.25;;
25731;SDS011;13585;50.864;4.406;2023-10-19T07:29:43;6.38;;;2.40;;
25731;SDS011;13585;50.864;4.406;2023-10-19T07:32:09;4.55;;;2.20;;
25731;SDS011;13585;50.864;4.406;2023-10-19T07:34:39;3.20;;;2.22;;
25731;SDS011;13585;50.864;4.406;2023-10-19T07:37:04;3.67;;;2.15;;
25731;SDS011;13585;50.864;4.406;2023-10-19T07:39:32;5.35;;;2.30;;
25731;SDS011;13585;50.864;4.406;2023-10-19T07:41:59;2.72;;;2.05;;
25731;SDS011;13585;50.864;4.406;2023-10-19T07:44:24;5.47;;;2.40;;
25731;SDS011;13585;50.864;4.406;2023-10-19T07:46:50;4.38;;;2.50;;
25731;SDS011;13585;50.864;4.406;2023-10-19T07:49:17;4.35;;;2.40;;
25731;SDS011;13585;50.864;4.406;2023-10-19T07:51:48;4.57;;;2.10;;
25731;SDS011;13585;50.864;4.406;2023-10-19T07:54:16;3.30;;;1.88;;
25731;SDS011;13585;50.864;4.406;2023-10-19T07:56:41;3.08;;;2.10;;
25731;SDS011;13585;50.864;4.406;2023-10-19T07:59:08;4.35;;;2.33;;
25731;SDS011;13585;50.864;4.406;2023-10-19T08:01:34;4.38;;;2.03;;
25731;SDS011;13585;50.864;4.406;2023-10-19T08:04:01;4.00;;;2.00;;
25731;SDS011;13585;50.864;4.406;2023-10-19T08:06:26;3.75;;;2.00;;
25731;SDS011;13585;50.864;4.406;2023-10-19T08:08:52;3.35;;;2.10;;
25731;SDS011;13585;50.864;4.406;2023-10-19T08:11:18;3.67;;;2.13;;
25731;SDS011;13585;50.864;4.406;2023-10-19T08:13:43;4.18;;;2.38;;
25731;SDS011;13585;50.864;4.406;2023-10-19T08:16:09;3.60;;;2.22;;
25731;SDS011;13585;50.864;4.406;2023-10-19T08:18:37;3.10;;;2.10;;
25731;SDS011;13585;50.864;4.406;2023-10-19T08:21:02;4.63;;;2.25;;
25731;SDS011;13585;50.864;4.406;2023-10-19T08:23:28;4.50;;;2.00;;
25731;SDS011;13585;50.864;4.406;2023-10-19T08:25:56;4.13;;;2.05;;
25731;SDS011;13585;50.864;4.406;2023-10-19T08:28:23;2.88;;;1.95;;
25731;SDS011;13585;50.864;4.406;2023-10-19T08:30:49;3.95;;;2.08;;
25731;SDS011;13585;50.864;4.406;2023-10-19T08:33:27;4.03;;;2.30;;
25731;SDS011;13585;50.864;4.406;2023-10-19T08:35:54;4.35;;;2.20;;
25731;SDS011;13585;50.864;4.406;2023-10-19T08:38:21;5.15;;;2.30;;
25731;SDS011;13585;50.864;4.406;2023-10-19T08:40:48;3.85;;;2.15;;
25731;SDS011;13585;50.864;4.406;2023-10-19T08:43:16;4.72;;;2.40;;
25731;SDS011;13585;50.864;4.406;2023-10-19T08:45:46;3.30;;;1.83;;
25731;SDS011;13585;50.864;4.406;2023-10-19T08:48:13;3.75;;;2.00;;
25731;SDS011;13585;50.864;4.406;2023-10-19T08:50:39;3.78;;;2.28;;
25731;SDS011;13585;50.864;4.406;2023-10-19T08:53:06;4.03;;;1.80;;
25731;SDS011;13585;50.864;4.406;2023-10-19T08:55:39;2.17;;;1.70;;
25731;SDS011;13585;50.864;4.406;2023-10-19T08:58:04;3.92;;;1.65;;
25731;SDS011;13585;50.864;4.406;2023-10-19T09:00:42;3.40;;;2.20;;
25731;SDS011;13585;50.864;4.406;2023-10-19T09:03:12;3.45;;;2.00;;
25731;SDS011;13585;50.864;4.406;2023-10-19T09:05:39;6.05;;;2.05;;
25731;SDS011;13585;50.864;4.406;2023-10-19T09:08:05;3.78;;;1.92;;
25731;SDS011;13585;50.864;4.406;2023-10-19T09:10:31;3.67;;;1.90;;
25731;SDS011;13585;50.864;4.406;2023-10-19T09:12:59;2.72;;;1.80;;
25731;SDS011;13585;50.864;4.406;2023-10-19T09:17:58;5.90;;;1.98;;
25731;SDS011;13585;50.864;4.406;2023-10-19T09:20:45;4.22;;;1.75;;
25731;SDS011;13585;50.864;4.406;2023-10-19T09:23:21;3.67;;;1.80;;
25731;SDS011;13585;50.864;4.406;2023-10-19T09:25:49;3.70;;;1.90;;
25731;SDS011;13585;50.864;4.406;2023-10-19T09:28:15;3.10;;;1.90;;
25731;SDS011;13585;50.864;4.406;2023-10-19T09:30:42;4.50;;;1.90;;
25731;SDS011;13585;50.864;4.406;2023-10-19T09:33:08;2.78;;;1.80;;
25731;SDS011;13585;50.864;4.406;2023-10-19T09:35:34;2.92;;;1.88;;
25731;SDS011;13585;50.864;4.406;2023-10-19T09:38:03;4.95;;;2.20;;
25731;SDS011;13585;50.864;4.406;2023-10-19T09:40:31;4.38;;;2.25;;
25731;SDS011;13585;50.864;4.406;2023-10-19T09:42:58;3.45;;;2.20;;
25731;SDS011;13585;50.864;4.406;2023-10-19T09:45:26;6.22;;;2.50;;
25731;SDS011;13585;50.864;4.406;2023-10-19T09:47:55;3.70;;;2.17;;
25731;SDS011;13585;50.864;4.406;2023-10-19T09:50:21;3.58;;;1.98;;
25731;SDS011;13585;50.864;4.406;2023-10-19T09:52:47;5.03;;;2.00;;
25731;SDS011;13585;50.864;4.406;2023-10-19T09:55:17;5.15;;;2.30;;
25731;SDS011;13585;50.864;4.406;2023-10-19T09:57:55;4.90;;;2.35;;
25731;SDS011;13585;50.864;4.406;2023-10-19T10:00:27;6.95;;;2.20;;
25731;SDS011;13585;50.864;4.406;2023-10-19T10:02:56;4.28;;;2.42;;
25731;SDS011;13585;50.864;4.406;2023-10-19T10:10:43;6.28;;;2.50;;
25731;SDS011;13585;50.864;4.406;2023-10-19T10:15:53;5.78;;;2.78;;
25731;SDS011;13585;50.864;4.406;2023-10-19T10:18:20;3.67;;;2.45;;
25731;SDS011;13585;50.864;4.406;2023-10-19T10:20:46;5.80;;;2.70;;
25731;SDS011;13585;50.864;4.406;2023-10-19T10:23:19;4.63;;;2.40;;
25731;SDS011;13585;50.864;4.406;2023-10-19T10:25:50;5.60;;;2.63;;
25731;SDS011;13585;50.864;4.406;2023-10-19T10:28:18;5.00;;;2.60;;
25731;SDS011;13585;50.864;4.406;2023-10-19T10:31:07;20.95;;;7.40;;
25731;SDS011;13585;50.864;4.406;2023-10-19T10:33:44;20.08;;;7.22;;
25731;SDS011;13585;50.864;4.406;2023-10-19T10:36:12;16.50;;;5.65;;
25731;SDS011;13585;50.864;4.406;2023-10-19T10:38:39;11.48;;;5.40;;
25731;SDS011;13585;50.864;4.406;2023-10-19T10:41:05;9.95;;;4.43;;
25731;SDS011;13585;50.864;4.406;2023-10-19T10:43:46;11.55;;;4.45;;
25731;SDS011;13585;50.864;4.406;2023-10-19T10:46:17;10.98;;;4.45;;
25731;SDS011;13585;50.864;4.406;2023-10-19T10:48:45;11.38;;;4.18;;
25731;SDS011;13585;50.864;4.406;2023-10-19T10:51:17;12.48;;;4.20;;
25731;SDS011;13585;50.864;4.406;2023-10-19T10:53:47;7.28;;;3.40;;
25731;SDS011;13585;50.864;4.406;2023-10-19T10:56:17;7.78;;;3.60;;
25731;SDS011;13585;50.864;4.406;2023-10-19T10:58:47;10.60;;;3.60;;
25731;SDS011;13585;50.864;4.406;2023-10-19T11:01:13;6.47;;;3.17;;
25731;SDS011;13585;50.864;4.406;2023-10-19T11:03:42;8.55;;;3.33;;
25731;SDS011;13585;50.864;4.406;2023-10-19T11:06:08;7.00;;;3.35;;
25731;SDS011;13585;50.864;4.406;2023-10-19T11:08:35;5.68;;;3.25;;
25731;SDS011;13585;50.864;4.406;2023-10-19T11:11:10;5.38;;;3.20;;
25731;SDS011;13585;50.864;4.406;2023-10-19T11:13:36;8.88;;;3.20;;
25731;SDS011;13585;50.864;4.406;2023-10-19T11:16:04;7.78;;;3.83;;
25731;SDS011;13585;50.864;4.406;2023-10-19T11:18:37;6.85;;;3.05;;
25731;SDS011;13585;50.864;4.406;2023-10-19T11:21:14;7.55;;;3.38;;
25731;SDS011;13585;50.864;4.406;2023-10-19T11:23:46;8.63;;;3.03;;
25731;SDS011;13585;50.864;4.406;2023-10-19T11:26:15;7.03;;;3.55;;
25731;SDS011;13585;50.864;4.406;2023-10-19T11:28:42;10.77;;;3.50;;
25731;SDS011;13585;50.864;4.406;2023-10-19T11:31:20;8.68;;;3.17;;
25731;SDS011;13585;50.864;4.406;2023-10-19T11:33:49;5.97;;;2.97;;
25731;SDS011;13585;50.864;4.406;2023-10-19T11:36:17;6.38;;;3.22;;
25731;SDS011;13585;50.864;4.406;2023-10-19T11:38:45;7.85;;;3.30;;
25731;SDS011;13585;50.864;4.406;2023-10-19T11:41:12;7.65;;;3.22;;
25731;SDS011;13585;50.864;4.406;2023-10-19T11:43:40;5.28;;;2.90;;
25731;SDS011;13585;50.864;4.406;2023-10-19T11:46:07;6.95;;;3.05;;
25731;SDS011;13585;50.864;4.406;2023-10-19T11:48:34;5.82;;;3.25;;
25731;SDS011;13585;50.864;4.406;2023-10-19T11:51:01;7.80;;;3.15;;
25731;SDS011;13585;50.864;4.406;2023-10-19T11:53:32;6.13;;;2.88;;
25731;SDS011;13585;50.864;4.406;2023-10-19T11:56:05;6.97;;;2.83;;
25731;SDS011;13585;50.864;4.406;2023-10-19T11:58:32;6.50;;;3.38;;
25731;SDS011;13585;50.864;4.406;2023-10-19T12:01:00;7.05;;;3.13;;
25731;SDS011;13585;50.864;4.406;2023-10-19T12:03:32;6.53;;;2.75;;
25731;SDS011;13585;50.864;4.406;2023-10-19T12:06:00;7.90;;;2.90;;
25731;SDS011;13585;50.864;4.406;2023-10-19T12:08:29;7.68;;;3.08;;
25731;SDS011;13585;50.864;4.406;2023-10-19T12:10:54;5.88;;;3.20;;
25731;SDS011;13585;50.864;4.406;2023-10-19T12:13:20;5.95;;;2.70;;
25731;SDS011;13585;50.864;4.406;2023-10-19T12:15:46;7.50;;;3.25;;
25731;SDS011;13585;50.864;4.406;2023-10-19T12:18:17;4.13;;;2.67;;
25731;SDS011;13585;50.864;4.406;2023-10-19T12:20:44;6.88;;;2.72;;
25731;SDS011;13585;50.864;4.406;2023-10-19T12:23:10;6.18;;;2.63;;
25731;SDS011;13585;50.864;4.406;2023-10-19T12:25:37;5.18;;;2.53;;
25731;SDS011;13585;50.864;4.406;2023-10-19T12:28:03;6.60;;;2.65;;
25731;SDS011;13585;50.864;4.406;2023-10-19T12:30:29;5.78;;;2.60;;
25731;SDS011;13585;50.864;4.406;2023-10-19T12:33:02;4.38;;;2.50;;
25731;SDS011;13585;50.864;4.406;2023-10-19T12:35:32;5.13;;;2.70;;
25731;SDS011;13585;50.864;4.406;2023-10-19T12:38:17;5.35;;;2.63;;
25731;SDS011;13585;50.864;4.406;2023-10-19T12:40:48;4.03;;;2.10;;
25731;SDS011;13585;50.864;4.406;2023-10-19T12:43:15;4.18;;;2.30;;
25731;SDS011;13585;50.864;4.406;2023-10-19T12:48:15;6.75;;;2.47;;
25731;SDS011;13585;50.864;4.406;2023-10-19T12:50:42;5.10;;;2.40;;
25731;SDS011;13585;50.864;4.406;2023-10-19T12:53:07;5.25;;;2.40;;
25731;SDS011;13585;50.864;4.406;2023-10-19T12:55:34;6.68;;;2.60;;
25731;SDS011;13585;50.864;4.406;2023-10-19T12:58:02;7.40;;;2.50;;
25731;SDS011;13585;50.864;4.406;2023-10-19T13:00:39;5.05;;;2.03;;
25731;SDS011;13585;50.864;4.406;2023-10-19T13:03:13;4.18;;;1.95;;
25731;SDS011;13585;50.864;4.406;2023-10-19T13:05:41;5.53;;;2.55;;
25731;SDS011;13585;50.864;4.406;2023-10-19T13:08:09;6.28;;;2.50;;
25731;SDS011;13585;50.864;4.406;2023-10-19T13:10:38;4.78;;;2.20;;
25731;SDS011;13585;50.864;4.406;2023-10-19T13:13:08;5.75;;;2.25;;
25731;SDS011;13585;50.864;4.406;2023-10-19T13:15:37;3.78;;;2.08;;
25731;SDS011;13585;50.864;4.406;2023-10-19T13:18:05;3.65;;;1.85;;
25731;SDS011;13585;50.864;4.406;2023-10-19T13:20:32;4.70;;;2.42;;
25731;SDS011;13585;50.864;4.406;2023-10-19T13:23:05;4.00;;;1.85;;
25731;SDS011;13585;50.864;4.406;2023-10-19T13:25:32;5.05;;;2.05;;
25731;SDS011;13585;50.864;4.406;2023-10-19T13:28:14;4.13;;;1.77;;
25731;SDS011;13585;50.864;4.406;2023-10-19T13:30:41;4.30;;;2.13;;
25731;SDS011;13585;50.864;4.406;2023-10-19T13:33:09;3.53;;;2.20;;
25731;SDS011;13585;50.864;4.406;2023-10-19T13:35:36;3.53;;;2.30;;
25731;SDS011;13585;50.864;4.406;2023-10-19T13:38:06;2.95;;;1.88;;
25731;SDS011;13585;50.864;4.406;2023-10-19T13:40:35;6.78;;;1.88;;
25731;SDS011;13585;50.864;4.406;2023-10-19T13:43:03;4.00;;;2.22;;
25731;SDS011;13585;50.864;4.406;2023-10-19T13:45:33;4.15;;;1.80;;
25731;SDS011;13585;50.864;4.406;2023-10-19T13:48:00;3.72;;;2.20;;
25731;SDS011;13585;50.864;4.406;2023-10-19T13:50:27;5.55;;;2.10;;
25731;SDS011;13585;50.864;4.406;2023-10-19T13:52:54;3.55;;;2.22;;
25731;SDS011;13585;50.864;4.406;2023-10-19T13:55:22;4.03;;;1.90;;
25731;SDS011;13585;50.864;4.406;2023-10-19T13:57:48;5.35;;;2.13;;
25731;SDS011;13585;50.864;4.406;2023-10-19T14:00:15;4.07;;;1.80;;
25731;SDS011;13585;50.864;4.406;2023-10-19T14:02:48;2.28;;;1.55;;
25731;SDS011;13585;50.864;4.406;2023-10-19T14:05:17;4.63;;;1.98;;
25731;SDS011;13585;50.864;4.406;2023-10-19T14:07:49;2.83;;;1.92;;
25731;SDS011;13585;50.864;4.406;2023-10-19T14:10:15;3.95;;;1.67;;
25731;SDS011;13585;50.864;4.406;2023-10-19T14:12:44;5.68;;;1.90;;
25731;SDS011;13585;50.864;4.406;2023-10-19T14:15:12;3.88;;;1.83;;
25731;SDS011;13585;50.864;4.406;2023-10-19T14:17:40;4.43;;;1.85;;
25731;SDS011;13585;50.864;4.406;2023-10-19T14:20:07;3.58;;;1.90;;
25731;SDS011;13585;50.864;4.406;2023-10-19T14:22:43;2.33;;;1.55;;
25731;SDS011;13585;50.864;4.406;2023-10-19T14:25:15;3.75;;;1.60;;
25731;SDS011;13585;50.864;4.406;2023-10-19T14:27:42;4.35;;;1.70;;
25731;SDS011;13585;50.864;4.406;2023-10-19T14:30:08;3.67;;;1.75;;
25731;SDS011;13585;50.864;4.406;2023-10-19T14:32:37;2.25;;;1.45;;
25731;SDS011;13585;50.864;4.406;2023-10-19T14:35:11;3.40;;;1.85;;
25731;SDS011;13585;50.864;4.406;2023-10-19T14:37:40;4.72;;;1.83;;
25731;SDS011;13585;50.864;4.406;2023-10-19T14:40:08;4.30;;;1.83;;
25731;SDS011;13585;50.864;4.406;2023-10-19T14:42:36;2.70;;;1.58;;
25731;SDS011;13585;50.864;4.406;2023-10-19T14:45:07;6.97;;;1.80;;
25731;SDS011;13585;50.864;4.406;2023-10-19T14:50:06;2.55;;;1.75;;
25731;SDS011;13585;50.864;4.406;2023-10-19T14:52:36;3.53;;;1.70;;
25731;SDS011;13585;50.864;4.406;2023-10-19T14:55:06;2.72;;;1.48;;
25731;SDS011;13585;50.864;4.406;2023-10-19T14:57:34;3.42;;;1.88;;
25731;SDS011;13585;50.864;4.406;2023-10-19T15:00:02;3.88;;;1.85;;
25731;SDS011;13585;50.864;4.406;2023-10-19T15:02:43;3.53;;;1.67;;
25731;SDS011;13585;50.864;4.406;2023-10-19T15:05:12;3.13;;;1.63;;
25731;SDS011;13585;50.864;4.406;2023-10-19T15:07:45;3.92;;;1.67;;
25731;SDS011;13585;50.864;4.406;2023-10-19T15:10:16;4.30;;;1.70;;
25731;SDS011;13585;50.864;4.406;2023-10-19T15:12:42;2.17;;;1.60;;
25731;SDS011;13585;50.864;4.406;2023-10-19T15:15:10;3.00;;;1.65;;
25731;SDS011;13585;50.864;4.406;2023-10-19T15:17:42;2.13;;;1.50;;
25731;SDS011;13585;50.864;4.406;2023-10-19T15:20:09;2.13;;;1.33;;
25731;SDS011;13585;50.864;4.406;2023-10-19T15:22:36;2.42;;;1.50;;